sensor_id;sensor_type;location;lat;lon;timestamp;pressure;altitude;pressure_sealevel;temperature;humidity
6136;BME280;24008;42.664;23.372;2023-06-14T00:00:37;94445.94;;;16.09;100.00
6136;BME280;24008;42.664;23.372;2023-06-14T00:03:06;94453.50;;;16.11;100.00
6136;BME280;24008;42.664;23.372;2023-06-14T00:05:33;94445.13;;;16.09;100.00
6136;BME280;24008;42.664;23.372;2023-06-14T00:08:05;94440.38;;;16.06;100.00
6136;BME280;24008;42.664;23.372;2023-06-14T00:10:33;94445.13;;;16.09;100.00
6136;BME280;24008;42.664;23.372;2023-06-14T00:13:00;94437.56;;;16.07;100.00
6136;BME280;24008;42.664;23.372;2023-06-14T00:15:27;94425.53;;;15.93;100.00
6136;BME280;24008;42.664;23.372;2023-06-14T00:17:54;94442.13;;;16.05;100.00
6136;BME280;24008;42.664;23.372;2023-06-14T00:20:21;94253.59;;;14.86;100.00
6136;BME280;24008;42.664;23.372;2023-06-14T00:22:48;94433.59;;;16.05;100.00
6136;BME280;24008;42.664;23.372;2023-06-14T00:25:16;94427.81;;;16.03;100.00
6136;BME280;24008;42.664;23.372;2023-06-14T00:27:43;94355.63;;;15.52;100.00
6136;BME280;24008;42.664;23.372;2023-06-14T00:30:11;94352.09;;;15.53;100.00
6136;BME280;24008;42.664;23.372;2023-06-14T00:32:38;94416.03;;;15.94;100.00
6136;BME280;24008;42.664;23.372;2023-06-14T00:35:05;94426.06;;;16.03;100.00
6136;BME280;24008;42.664;23.372;2023-06-14T00:37:33;94423.88;;;16.07;100.00
6136;BME280;24008;42.664;23.372;2023-06-14T00:40:00;94329.63;;;15.47;100.00
6136;BME280;24008;42.664;23.372;2023-06-14T00:42:28;94292.66;;;15.19;100.00
6136;BME280;24008;42.664;23.372;2023-06-14T00:44:55;94422.50;;;16.04;100.00
6136;BME280;24008;42.664;23.372;2023-06-14T00:47:22;94384.75;;;15.82;100.00
6136;BME280;24008;42.664;23.372;2023-06-14T00:49:50;94378.63;;;15.83;100.00
6136;BME280;24008;42.664;23.372;2023-06-14T00:52:18;94400.66;;;15.85;100.00
6136;BME280;24008;42.664;23.372;2023-06-14T00:54:45;94420.44;;;16.00;100.00
6136;BME280;24008;42.664;23.372;2023-06-14T00:57:12;94299.28;;;15.28;100.00
6136;BME280;24008;42.664;23.372;2023-06-14T00:59:43;94340.97;;;15.53;100.00
6136;BME280;24008;42.664;23.372;2023-06-14T01:02:11;94409.34;;;15.99;100.00
6136;BME280;24008;42.664;23.372;2023-06-14T01:04:39;94417.25;;;15.98;100.00
6136;BME280;24008;42.664;23.372;2023-06-14T01:07:13;94307.88;;;15.35;100.00
6136;BME280;24008;42.664;23.372;2023-06-14T01:09:50;94399.75;;;15.93;100.00
6136;BME280;24008;42.664;23.372;2023-06-14T01:12:29;94392.47;;;15.82;100.00
6136;BME280;24008;42.664;23.372;2023-06-14T01:15:00;94351.03;;;15.62;100.00
6136;BME280;24008;42.664;23.372;2023-06-14T01:17:28;94134.31;;;14.13;100.00
6136;BME280;24008;42.664;23.372;2023-06-14T01:19:57;94415.28;;;16.00;100.00
6136;BME280;24008;42.664;23.372;2023-06-14T01:22:25;94319.06;;;15.42;100.00
6136;BME280;24008;42.664;23.372;2023-06-14T01:24:54;94442.31;;;16.04;100.00
6136;BME280;24008;42.664;23.372;2023-06-14T01:27:22;94425.25;;;16.03;100.00
6136;BME280;24008;42.664;23.372;2023-06-14T01:29:54;94413.16;;;16.03;100.00
6136;BME280;24008;42.664;23.372;2023-06-14T01:32:23;94421.69;;;16.04;100.00
6136;BME280;24008;42.664;23.372;2023-06-14T01:34:51;94386.00;;;15.86;100.00
6136;BME280;24008;42.664;23.372;2023-06-14T01:37:18;94351.91;;;15.69;100.00
6136;BME280;24008;42.664;23.372;2023-06-14T01:39:47;94357.84;;;15.70;100.00
6136;BME280;24008;42.664;23.372;2023-06-14T01:42:17;94389.88;;;15.97;100.00
6136;BME280;24008;42.664;23.372;2023-06-14T01:44:44;94347.31;;;15.65;100.00
6136;BME280;24008;42.664;23.372;2023-06-14T01:47:14;94340.72;;;15.62;100.00
6136;BME280;24008;42.664;23.372;2023-06-14T01:49:41;94375.84;;;15.84;100.00
6136;BME280;24008;42.664;23.372;2023-06-14T01:52:08;94337.19;;;15.63;100.00
6136;BME280;24008;42.664;23.372;2023-06-14T01:54:35;94407.88;;;16.11;100.00
6136;BME280;24008;42.664;23.372;2023-06-14T01:57:07;94407.63;;;16.06;100.00
6136;BME280;24008;42.664;23.372;2023-06-14T01:59:35;94375.44;;;15.81;100.00
6136;BME280;24008;42.664;23.372;2023-06-14T02:02:02;94367.47;;;15.61;100.00
6136;BME280;24008;42.664;23.372;2023-06-14T02:04:29;94423.38;;;15.97;100.00
6136;BME280;24008;42.664;23.372;2023-06-14T02:06:56;94402.72;;;15.75;100.00
6136;BME280;24008;42.664;23.372;2023-06-14T02:09:23;94426.44;;;15.85;100.00
6136;BME280;24008;42.664;23.372;2023-06-14T02:11:50;94425.00;;;15.83;100.00
6136;BME280;24008;42.664;23.372;2023-06-14T02:14:17;94429.97;;;15.84;100.00
6136;BME280;24008;42.664;23.372;2023-06-14T02:16:45;94390.22;;;15.58;100.00
6136;BME280;24008;42.664;23.372;2023-06-14T02:19:15;94395.19;;;15.59;100.00
6136;BME280;24008;42.664;23.372;2023-06-14T02:21:42;94440.28;;;15.84;100.00
6136;BME280;24008;42.664;23.372;2023-06-14T02:24:08;94433.53;;;15.83;100.00
6136;BME280;24008;42.664;23.372;2023-06-14T02:26:35;94436.50;;;15.80;100.00
6136;BME280;24008;42.664;23.372;2023-06-14T02:29:03;94435.31;;;15.83;100.00
6136;BME280;24008;42.664;23.372;2023-06-14T02:31:30;94408.50;;;15.63;100.00
6136;BME280;24008;42.664;23.372;2023-06-14T02:33:59;94451.16;;;15.80;100.00
6136;BME280;24008;42.664;23.372;2023-06-14T02:36:25;94440.41;;;15.76;100.00
6136;BME280;24008;42.664;23.372;2023-06-14T02:38:52;94399.44;;;15.52;100.00
6136;BME280;24008;42.664;23.372;2023-06-14T02:41:19;94439.41;;;15.77;100.00
6136;BME280;24008;42.664;23.372;2023-06-14T02:43:46;94440.75;;;15.73;100.00
6136;BME280;24008;42.664;23.372;2023-06-14T02:46:12;94438.16;;;15.73;100.00
6136;BME280;24008;42.664;23.372;2023-06-14T02:48:40;94440.28;;;15.70;100.00
6136;BME280;24008;42.664;23.372;2023-06-14T02:51:08;94439.53;;;15.69;100.00
6136;BME280;24008;42.664;23.372;2023-06-14T02:53:35;94443.88;;;15.69;100.00
6136;BME280;24008;42.664;23.372;2023-06-14T02:56:02;94446.25;;;15.70;100.00
6136;BME280;24008;42.664;23.372;2023-06-14T02:58:30;94312.41;;;14.74;100.00
6136;BME280;24008;42.664;23.372;2023-06-14T03:00:58;94446.44;;;15.69;100.00
6136;BME280;24008;42.664;23.372;2023-06-14T03:03:28;94466.84;;;15.70;100.00
6136;BME280;24008;42.664;23.372;2023-06-14T03:05:55;94344.03;;;15.12;100.00
6136;BME280;24008;42.664;23.372;2023-06-14T03:08:23;94422.28;;;15.55;100.00
6136;BME280;24008;42.664;23.372;2023-06-14T03:10:52;94451.84;;;15.74;100.00
6136;BME280;24008;42.664;23.372;2023-06-14T03:13:21;94425.81;;;15.54;100.00
6136;BME280;24008;42.664;23.372;2023-06-14T03:15:48;94417.47;;;15.52;100.00
6136;BME280;24008;42.664;23.372;2023-06-14T03:18:16;94443.44;;;15.65;100.00
6136;BME280;24008;42.664;23.372;2023-06-14T03:20:43;94423.75;;;15.49;100.00
6136;BME280;24008;42.664;23.372;2023-06-14T03:23:11;94457.56;;;15.69;100.00
6136;BME280;24008;42.664;23.372;2023-06-14T03:25:40;94427.13;;;15.50;100.00
6136;BME280;24008;42.664;23.372;2023-06-14T03:28:07;94445.19;;;15.65;100.00
6136;BME280;24008;42.664;23.372;2023-06-14T03:30:34;94453.91;;;15.78;100.00
6136;BME280;24008;42.664;23.372;2023-06-14T03:33:01;94428.66;;;15.59;100.00
6136;BME280;24008;42.664;23.372;2023-06-14T03:35:28;94461.00;;;15.76;100.00
6136;BME280;24008;42.664;23.372;2023-06-14T03:37:55;94480.03;;;15.75;100.00
6136;BME280;24008;42.664;23.372;2023-06-14T03:40:22;94460.03;;;15.77;100.00
6136;BME280;24008;42.664;23.372;2023-06-14T03:42:53;94468.22;;;15.81;100.00
6136;BME280;24008;42.664;23.372;2023-06-14T03:45:20;94459.06;;;15.78;100.00
6136;BME280;24008;42.664;23.372;2023-06-14T03:47:47;94438.97;;;15.59;100.00
6136;BME280;24008;42.664;23.372;2023-06-14T03:50:14;94465.88;;;15.86;100.00
6136;BME280;24008;42.664;23.372;2023-06-14T03:52:41;94385.84;;;15.29;100.00
6136;BME280;24008;42.664;23.372;2023-06-14T03:55:09;94440.75;;;15.73;100.00
6136;BME280;24008;42.664;23.372;2023-06-14T03:57:38;94465.06;;;15.85;100.00
6136;BME280;24008;42.664;23.372;2023-06-14T04:00:08;94435.34;;;15.68;100.00
6136;BME280;24008;42.664;23.372;2023-06-14T04:02:36;94469.09;;;15.88;100.00
6136;BME280;24008;42.664;23.372;2023-06-14T04:05:03;94413.59;;;15.56;100.00
6136;BME280;24008;42.664;23.372;2023-06-14T04:07:30;94401.19;;;15.52;100.00
6136;BME280;24008;42.664;23.372;2023-06-14T04:09:57;94465.88;;;16.01;100.00
6136;BME280;24008;42.664;23.372;2023-06-14T04:12:24;94380.44;;;15.38;100.00
6136;BME280;24008;42.664;23.372;2023-06-14T04:14:51;94464.38;;;15.92;100.00
6136;BME280;24008;42.664;23.372;2023-06-14T04:17:19;94477.06;;;16.08;100.00
6136;BME280;24008;42.664;23.372;2023-06-14T04:19:46;94476.78;;;16.17;100.00
6136;BME280;24008;42.664;23.372;2023-06-14T04:22:13;94468.25;;;16.17;100.00
6136;BME280;24008;42.664;23.372;2023-06-14T04:24:39;94478.34;;;16.33;100.00
6136;BME280;24008;42.664;23.372;2023-06-14T04:27:07;94474.88;;;16.41;100.00
6136;BME280;24008;42.664;23.372;2023-06-14T04:29:34;94474.13;;;16.47;100.00
6136;BME280;24008;42.664;23.372;2023-06-14T04:32:01;94442.66;;;16.37;100.00
6136;BME280;24008;42.664;23.372;2023-06-14T04:34:29;94481.84;;;16.83;100.00
6136;BME280;24008;42.664;23.372;2023-06-14T04:36:58;94374.56;;;16.74;100.00
6136;BME280;24008;42.664;23.372;2023-06-14T04:39:26;94432.06;;;17.45;100.00
6136;BME280;24008;42.664;23.372;2023-06-14T04:41:53;94456.66;;;17.69;100.00
6136;BME280;24008;42.664;23.372;2023-06-14T04:44:23;94456.56;;;17.83;100.00
6136;BME280;24008;42.664;23.372;2023-06-14T04:46:55;94485.38;;;18.28;100.00
6136;BME280;24008;42.664;23.372;2023-06-14T04:49:24;94488.59;;;18.30;100.00
6136;BME280;24008;42.664;23.372;2023-06-14T04:51:56;94396.69;;;17.80;100.00
6136;BME280;24008;42.664;23.372;2023-06-14T04:54:24;94499.41;;;18.53;100.00
6136;BME280;24008;42.664;23.372;2023-06-14T04:56:51;94400.06;;;17.80;100.00
6136;BME280;24008;42.664;23.372;2023-06-14T04:59:18;94506.13;;;18.41;100.00
6136;BME280;24008;42.664;23.372;2023-06-14T05:01:45;94488.19;;;18.33;100.00
6136;BME280;24008;42.664;23.372;2023-06-14T05:04:13;94516.47;;;18.41;100.00
6136;BME280;24008;42.664;23.372;2023-06-14T05:06:41;94516.13;;;18.51;100.00
6136;BME280;24008;42.664;23.372;2023-06-14T05:09:13;94521.53;;;18.56;100.00
6136;BME280;24008;42.664;23.372;2023-06-14T05:11:40;94494.97;;;18.41;100.00
6136;BME280;24008;42.664;23.372;2023-06-14T05:14:09;94336.22;;;17.33;100.00
6136;BME280;24008;42.664;23.372;2023-06-14T05:16:36;94410.75;;;17.71;99.81
6136;BME280;24008;42.664;23.372;2023-06-14T05:19:04;94527.81;;;18.40;99.01
6136;BME280;24008;42.664;23.372;2023-06-14T05:21:32;94482.97;;;18.20;99.46
6136;BME280;24008;42.664;23.372;2023-06-14T05:24:00;94479.16;;;18.16;98.81
6136;BME280;24008;42.664;23.372;2023-06-14T05:26:28;94526.97;;;18.26;98.62
6136;BME280;24008;42.664;23.372;2023-06-14T05:28:55;94490.50;;;18.08;99.35
6136;BME280;24008;42.664;23.372;2023-06-14T05:31:23;94539.53;;;18.36;99.70
6136;BME280;24008;42.664;23.372;2023-06-14T05:33:49;94567.00;;;18.37;100.00
6136;BME280;24008;42.664;23.372;2023-06-14T05:36:16;94541.59;;;18.47;100.00
6136;BME280;24008;42.664;23.372;2023-06-14T05:38:43;94540.81;;;18.53;99.73
6136;BME280;24008;42.664;23.372;2023-06-14T05:41:10;94495.78;;;18.41;98.51
6136;BME280;24008;42.664;23.372;2023-06-14T05:43:38;94546.13;;;18.80;98.13
6136;BME280;24008;42.664;23.372;2023-06-14T05:46:05;94537.78;;;19.11;98.05
6136;BME280;24008;42.664;23.372;2023-06-14T05:48:32;94536.25;;;19.49;94.29
6136;BME280;24008;42.664;23.372;2023-06-14T05:50:59;94499.75;;;19.51;90.16
6136;BME280;24008;42.664;23.372;2023-06-14T05:53:26;94546.56;;;19.95;88.87
6136;BME280;24008;42.664;23.372;2023-06-14T05:55:52;94544.78;;;20.02;88.93
6136;BME280;24008;42.664;23.372;2023-06-14T05:58:20;94549.31;;;20.20;88.70
6136;BME280;24008;42.664;23.372;2023-06-14T06:00:48;94550.09;;;20.27;87.26
6136;BME280;24008;42.664;23.372;2023-06-14T06:03:15;94556.06;;;20.34;86.36
6136;BME280;24008;42.664;23.372;2023-06-14T06:05:42;94443.47;;;19.71;86.96
6136;BME280;24008;42.664;23.372;2023-06-14T06:08:09;94527.38;;;20.16;84.58
6136;BME280;24008;42.664;23.372;2023-06-14T06:10:36;94536.94;;;20.22;84.21
6136;BME280;24008;42.664;23.372;2023-06-14T06:13:02;94559.63;;;20.46;85.36
6136;BME280;24008;42.664;23.372;2023-06-14T06:15:30;94440.47;;;20.38;84.88
6136;BME280;24008;42.664;23.372;2023-06-14T06:17:59;94558.16;;;21.40;81.06
6136;BME280;24008;42.664;23.372;2023-06-14T06:20:26;94185.91;;;19.08;78.52
6136;BME280;24008;42.664;23.372;2023-06-14T06:22:55;94505.44;;;21.26;79.00
6136;BME280;24008;42.664;23.372;2023-06-14T06:25:22;94560.06;;;21.76;80.27
6136;BME280;24008;42.664;23.372;2023-06-14T06:27:51;94567.53;;;21.72;78.88
6136;BME280;24008;42.664;23.372;2023-06-14T06:30:18;94537.94;;;21.42;75.78
6136;BME280;24008;42.664;23.372;2023-06-14T06:32:45;94567.50;;;21.47;76.51
6136;BME280;24008;42.664;23.372;2023-06-14T06:35:13;94570.44;;;21.26;78.05
6136;BME280;24008;42.664;23.372;2023-06-14T06:37:41;94538.31;;;20.82;78.86
6136;BME280;24008;42.664;23.372;2023-06-14T06:40:09;94567.81;;;20.95;78.69
6136;BME280;24008;42.664;23.372;2023-06-14T06:42:36;94535.47;;;20.46;80.72
6136;BME280;24008;42.664;23.372;2023-06-14T06:45:03;94568.78;;;20.62;82.92
6136;BME280;24008;42.664;23.372;2023-06-14T06:47:30;94576.25;;;20.39;83.14
6136;BME280;24008;42.664;23.372;2023-06-14T06:49:57;94560.94;;;19.98;83.55
6136;BME280;24008;42.664;23.372;2023-06-14T06:52:25;94556.41;;;19.67;84.05
6136;BME280;24008;42.664;23.372;2023-06-14T06:54:52;94530.47;;;19.60;84.39
6136;BME280;24008;42.664;23.372;2023-06-14T06:57:21;94569.72;;;19.84;85.25
6136;BME280;24008;42.664;23.372;2023-06-14T06:59:48;94571.13;;;19.86;85.10
6136;BME280;24008;42.664;23.372;2023-06-14T07:02:15;94534.25;;;19.64;85.62
6136;BME280;24008;42.664;23.372;2023-06-14T07:04:42;94570.91;;;19.94;85.71
6136;BME280;24008;42.664;23.372;2023-06-14T07:07:09;94572.50;;;20.08;85.04
6136;BME280;24008;42.664;23.372;2023-06-14T07:09:37;94556.88;;;20.22;84.41
6136;BME280;24008;42.664;23.372;2023-06-14T07:12:04;94542.50;;;20.39;83.90
6136;BME280;24008;42.664;23.372;2023-06-14T07:14:32;94552.75;;;20.72;82.82
6136;BME280;24008;42.664;23.372;2023-06-14T07:16:59;94572.94;;;21.08;82.82
6136;BME280;24008;42.664;23.372;2023-06-14T07:19:26;94557.22;;;21.34;84.10
6136;BME280;24008;42.664;23.372;2023-06-14T07:21:52;94563.84;;;21.80;79.82
6136;BME280;24008;42.664;23.372;2023-06-14T07:24:19;94568.84;;;22.43;75.88
6136;BME280;24008;42.664;23.372;2023-06-14T07:26:48;94510.47;;;22.50;73.78
6136;BME280;24008;42.664;23.372;2023-06-14T07:29:15;94543.47;;;23.05;71.57
6136;BME280;24008;42.664;23.372;2023-06-14T07:31:43;94538.22;;;23.46;69.04
6136;BME280;24008;42.664;23.372;2023-06-14T07:34:09;94567.34;;;24.08;65.64
6136;BME280;24008;42.664;23.372;2023-06-14T07:36:36;94557.75;;;24.60;64.39
6136;BME280;24008;42.664;23.372;2023-06-14T07:39:03;94557.25;;;25.48;61.71
6136;BME280;24008;42.664;23.372;2023-06-14T07:41:31;94561.91;;;25.92;61.20
6136;BME280;24008;42.664;23.372;2023-06-14T07:44:00;94445.41;;;24.77;60.98
6136;BME280;24008;42.664;23.372;2023-06-14T07:46:28;94559.88;;;25.32;58.05
6136;BME280;24008;42.664;23.372;2023-06-14T07:48:55;94535.81;;;24.90;57.88
6136;BME280;24008;42.664;23.372;2023-06-14T07:51:22;94570.03;;;24.60;58.66
6136;BME280;24008;42.664;23.372;2023-06-14T07:53:50;94352.00;;;23.35;59.55
6136;BME280;24008;42.664;23.372;2023-06-14T07:56:17;94438.13;;;24.22;58.64
6136;BME280;24008;42.664;23.372;2023-06-14T07:58:43;94575.81;;;24.62;60.87
6136;BME280;24008;42.664;23.372;2023-06-14T08:01:12;94573.34;;;24.32;63.30
6136;BME280;24008;42.664;23.372;2023-06-14T08:03:38;94455.19;;;23.43;63.91
6136;BME280;24008;42.664;23.372;2023-06-14T08:06:06;94585.19;;;24.34;62.28
6136;BME280;24008;42.664;23.372;2023-06-14T08:08:33;94582.75;;;24.21;65.54
6136;BME280;24008;42.664;23.372;2023-06-14T08:11:00;94508.41;;;23.42;64.60
6136;BME280;24008;42.664;23.372;2023-06-14T08:13:27;94600.03;;;23.99;63.98
6136;BME280;24008;42.664;23.372;2023-06-14T08:15:54;94597.78;;;24.02;62.35
6136;BME280;24008;42.664;23.372;2023-06-14T08:18:24;94595.38;;;24.13;61.67
6136;BME280;24008;42.664;23.372;2023-06-14T08:20:51;94592.22;;;24.22;61.83
6136;BME280;24008;42.664;23.372;2023-06-14T08:23:19;94596.44;;;24.98;60.85
6136;BME280;24008;42.664;23.372;2023-06-14T08:25:47;94541.84;;;25.64;57.25
6136;BME280;24008;42.664;23.372;2023-06-14T08:28:13;94596.25;;;26.89;56.62
6136;BME280;24008;42.664;23.372;2023-06-14T08:30:41;94601.34;;;27.49;54.60
6136;BME280;24008;42.664;23.372;2023-06-14T08:33:08;94606.41;;;27.56;50.21
6136;BME280;24008;42.664;23.372;2023-06-14T08:35:36;94606.81;;;26.94;51.10
6136;BME280;24008;42.664;23.372;2023-06-14T08:38:05;94600.19;;;26.48;52.65
6136;BME280;24008;42.664;23.372;2023-06-14T08:40:37;94564.38;;;25.81;53.78
6136;BME280;24008;42.664;23.372;2023-06-14T08:43:04;94535.63;;;25.87;52.67
6136;BME280;24008;42.664;23.372;2023-06-14T08:45:31;94535.16;;;26.67;50.66
6136;BME280;24008;42.664;23.372;2023-06-14T08:47:58;94438.88;;;26.89;47.77
6136;BME280;24008;42.664;23.372;2023-06-14T08:50:27;94586.22;;;27.88;48.51
6136;BME280;24008;42.664;23.372;2023-06-14T08:52:57;94594.44;;;28.34;47.59
6136;BME280;24008;42.664;23.372;2023-06-14T08:55:27;94590.59;;;28.15;47.06
6136;BME280;24008;42.664;23.372;2023-06-14T08:57:55;94586.25;;;27.93;46.16
6136;BME280;24008;42.664;23.372;2023-06-14T09:00:24;94562.59;;;27.93;46.58
6136;BME280;24008;42.664;23.372;2023-06-14T09:02:51;94574.41;;;27.59;46.71
6136;BME280;24008;42.664;23.372;2023-06-14T09:05:22;94591.03;;;27.65;46.76
6136;BME280;24008;42.664;23.372;2023-06-14T09:07:49;94585.78;;;27.43;48.64
6136;BME280;24008;42.664;23.372;2023-06-14T09:10:18;94555.63;;;26.70;50.87
6136;BME280;24008;42.664;23.372;2023-06-14T09:12:45;94497.72;;;25.72;51.65
6136;BME280;24008;42.664;23.372;2023-06-14T09:15:12;94551.03;;;25.66;52.53
6136;BME280;24008;42.664;23.372;2023-06-14T09:17:40;94587.09;;;25.47;52.92
6136;BME280;24008;42.664;23.372;2023-06-14T09:20:08;94475.41;;;24.46;55.30
6136;BME280;24008;42.664;23.372;2023-06-14T09:22:36;94573.47;;;24.77;56.48
6136;BME280;24008;42.664;23.372;2023-06-14T09:25:04;94574.28;;;24.77;56.27
6136;BME280;24008;42.664;23.372;2023-06-14T09:27:32;94548.44;;;24.53;57.03
6136;BME280;24008;42.664;23.372;2023-06-14T09:30:01;94589.16;;;24.77;57.51
6136;BME280;24008;42.664;23.372;2023-06-14T09:32:29;94577.25;;;24.69;56.68
6136;BME280;24008;42.664;23.372;2023-06-14T09:34:56;94444.47;;;23.51;57.68
6136;BME280;24008;42.664;23.372;2023-06-14T09:37:29;94571.53;;;24.09;58.50
6136;BME280;24008;42.664;23.372;2023-06-14T09:39:56;94411.59;;;22.85;59.17
6136;BME280;24008;42.664;23.372;2023-06-14T09:42:24;94456.19;;;23.19;59.69
6136;BME280;24008;42.664;23.372;2023-06-14T09:44:54;94565.28;;;23.75;60.00
6136;BME280;24008;42.664;23.372;2023-06-14T09:47:21;94527.03;;;23.81;61.32
6136;BME280;24008;42.664;23.372;2023-06-14T09:49:49;94536.47;;;24.68;60.15
6136;BME280;24008;42.664;23.372;2023-06-14T09:52:18;94533.09;;;25.75;58.22
6136;BME280;24008;42.664;23.372;2023-06-14T09:54:47;94553.66;;;26.82;51.44
6136;BME280;24008;42.664;23.372;2023-06-14T09:57:16;94542.38;;;26.81;49.13
6136;BME280;24008;42.664;23.372;2023-06-14T09:59:44;94563.38;;;26.60;49.97
6136;BME280;24008;42.664;23.372;2023-06-14T10:02:18;94554.84;;;25.75;51.86
6136;BME280;24008;42.664;23.372;2023-06-14T10:04:53;94555.91;;;25.29;52.97
6136;BME280;24008;42.664;23.372;2023-06-14T10:07:24;94518.06;;;25.03;53.37
6136;BME280;24008;42.664;23.372;2023-06-14T10:09:53;94483.22;;;24.86;53.12
6136;BME280;24008;42.664;23.372;2023-06-14T10:12:20;94539.00;;;25.65;52.62
6136;BME280;24008;42.664;23.372;2023-06-14T10:14:49;94501.03;;;26.40;50.88
6136;BME280;24008;42.664;23.372;2023-06-14T10:17:25;94537.59;;;27.86;48.43
6136;BME280;24008;42.664;23.372;2023-06-14T10:19:57;94517.16;;;28.40;45.49
6136;BME280;24008;42.664;23.372;2023-06-14T10:22:34;94440.44;;;28.48;44.34
6136;BME280;24008;42.664;23.372;2023-06-14T10:25:06;94492.66;;;29.12;43.21
6136;BME280;24008;42.664;23.372;2023-06-14T10:27:37;94479.50;;;29.07;42.68
6136;BME280;24008;42.664;23.372;2023-06-14T10:30:06;94526.88;;;28.97;42.87
6136;BME280;24008;42.664;23.372;2023-06-14T10:33:03;94433.97;;;28.09;42.81
6136;BME280;24008;42.664;23.372;2023-06-14T10:35:30;94549.28;;;29.30;41.99
6136;BME280;24008;42.664;23.372;2023-06-14T10:38:06;94534.28;;;29.35;41.63
6136;BME280;24008;42.664;23.372;2023-06-14T10:40:34;94519.00;;;29.07;42.97
6136;BME280;24008;42.664;23.372;2023-06-14T10:43:00;94518.25;;;29.52;42.83
6136;BME280;24008;42.664;23.372;2023-06-14T10:45:27;94474.53;;;29.51;42.80
6136;BME280;24008;42.664;23.372;2023-06-14T10:47:57;94519.28;;;29.97;43.04
6136;BME280;24008;42.664;23.372;2023-06-14T10:50:27;94514.28;;;30.00;41.11
6136;BME280;24008;42.664;23.372;2023-06-14T10:52:55;94513.72;;;29.12;42.73
6136;BME280;24008;42.664;23.372;2023-06-14T10:55:22;94512.25;;;28.07;44.65
6136;BME280;24008;42.664;23.372;2023-06-14T10:57:50;94505.84;;;27.23;46.73
6136;BME280;24008;42.664;23.372;2023-06-14T11:00:19;94503.22;;;26.97;48.30
6136;BME280;24008;42.664;23.372;2023-06-14T11:05:53;94495.97;;;26.82;49.44
6136;BME280;24008;42.664;23.372;2023-06-14T11:08:40;94491.38;;;26.67;50.26
6136;BME280;24008;42.664;23.372;2023-06-14T11:11:14;94502.38;;;26.26;49.08
6136;BME280;24008;42.664;23.372;2023-06-14T11:13:43;94489.47;;;25.80;50.59
6136;BME280;24008;42.664;23.372;2023-06-14T11:16:11;94497.91;;;25.82;50.47
6136;BME280;24008;42.664;23.372;2023-06-14T11:18:39;94492.47;;;25.89;49.84
6136;BME280;24008;42.664;23.372;2023-06-14T11:21:07;94490.28;;;26.19;50.25
6136;BME280;24008;42.664;23.372;2023-06-14T11:23:34;94489.38;;;26.52;50.06
6136;BME280;24008;42.664;23.372;2023-06-14T11:26:01;94487.66;;;26.90;48.47
6136;BME280;24008;42.664;23.372;2023-06-14T11:28:37;94477.25;;;26.95;47.80
6136;BME280;24008;42.664;23.372;2023-06-14T11:31:04;94421.75;;;26.11;48.09
6136;BME280;24008;42.664;23.372;2023-06-14T11:33:31;94480.72;;;25.92;48.53
6136;BME280;24008;42.664;23.372;2023-06-14T11:36:02;94481.22;;;25.55;49.45
6136;BME280;24008;42.664;23.372;2023-06-14T11:38:29;94459.00;;;25.24;49.42
6136;BME280;24008;42.664;23.372;2023-06-14T11:40:58;94391.06;;;24.79;49.76
6136;BME280;24008;42.664;23.372;2023-06-14T11:43:25;94474.41;;;25.54;49.99
6136;BME280;24008;42.664;23.372;2023-06-14T11:45:53;94443.72;;;25.49;49.87
6136;BME280;24008;42.664;23.372;2023-06-14T11:48:19;94478.81;;;25.87;50.05
6136;BME280;24008;42.664;23.372;2023-06-14T11:50:49;94304.56;;;24.47;49.87
6136;BME280;24008;42.664;23.372;2023-06-14T11:53:18;94430.00;;;25.26;49.15
6136;BME280;24008;42.664;23.372;2023-06-14T11:55:44;94404.22;;;24.84;49.93
6136;BME280;24008;42.664;23.372;2023-06-14T11:58:13;94424.09;;;24.97;50.88
6136;BME280;24008;42.664;23.372;2023-06-14T12:00:40;94380.88;;;24.94;51.81
6136;BME280;24008;42.664;23.372;2023-06-14T12:03:08;94443.00;;;25.54;51.55
6136;BME280;24008;42.664;23.372;2023-06-14T12:05:36;94442.50;;;25.74;51.51
6136;BME280;24008;42.664;23.372;2023-06-14T12:08:03;94385.66;;;25.69;50.74
6136;BME280;24008;42.664;23.372;2023-06-14T12:10:39;94437.50;;;26.11;50.46
6136;BME280;24008;42.664;23.372;2023-06-14T12:13:06;94296.81;;;25.02;50.48
6136;BME280;24008;42.664;23.372;2023-06-14T12:15:33;94348.16;;;25.08;51.09
6136;BME280;24008;42.664;23.372;2023-06-14T12:18:00;94427.78;;;25.68;51.50
6136;BME280;24008;42.664;23.372;2023-06-14T12:20:29;94417.47;;;25.61;51.67
6136;BME280;24008;42.664;23.372;2023-06-14T12:22:58;94433.97;;;25.62;51.52
6136;BME280;24008;42.664;23.372;2023-06-14T12:25:27;94407.41;;;25.36;52.46
6136;BME280;24008;42.664;23.372;2023-06-14T12:27:58;94372.34;;;24.99;51.99
6136;BME280;24008;42.664;23.372;2023-06-14T12:30:25;94383.88;;;24.86;52.24
6136;BME280;24008;42.664;23.372;2023-06-14T12:32:52;94419.41;;;24.99;52.93
6136;BME280;24008;42.664;23.372;2023-06-14T12:35:19;94383.31;;;24.84;53.27
6136;BME280;24008;42.664;23.372;2023-06-14T12:37:46;94407.84;;;25.11;53.27
6136;BME280;24008;42.664;23.372;2023-06-14T12:40:13;94386.75;;;25.01;52.53
6136;BME280;24008;42.664;23.372;2023-06-14T12:42:40;94386.75;;;25.01;51.65
6136;BME280;24008;42.664;23.372;2023-06-14T12:45:10;94365.47;;;24.81;51.65
6136;BME280;24008;42.664;23.372;2023-06-14T12:47:37;94410.53;;;25.17;52.07
6136;BME280;24008;42.664;23.372;2023-06-14T12:50:06;94359.06;;;24.89;51.53
6136;BME280;24008;42.664;23.372;2023-06-14T12:52:33;94293.00;;;24.43;52.10
6136;BME280;24008;42.664;23.372;2023-06-14T12:55:02;94256.03;;;24.34;52.00
6136;BME280;24008;42.664;23.372;2023-06-14T12:57:29;94329.19;;;24.68;51.26
6136;BME280;24008;42.664;23.372;2023-06-14T12:59:56;94404.03;;;25.02;51.18
6136;BME280;24008;42.664;23.372;2023-06-14T13:02:24;94399.28;;;24.99;51.41